Połmaraton Chełmzynski i Chełmzynska Dziesiatka - 10km.xlsx

M-ce Numer Nazwisko Imię Płeć M-ce M/K Miejscowość Klub DYSTANS Wynik Prędkość km/h x Tempo min/km x 5km
1 263 SZPECIŃSKI PRZEMEK M 1 RYMAŃ 10km 0:34:24 17.44 [km/h] 05:26 [min/km] 0:34:24
2 277 KANIGOWSKI MICHAŁ M 2 TORUŃ 10km 0:36:48 16.30 [km/h] 05:41 [min/km] 0:36:48
3 276 CHMIELARZ KRZYSZTOF M 3 KRUSZWICA CHMIELARZ TEAM 10km 0:37:04 16.19 [km/h] 05:42 [min/km] 0:37:04
4 234 GRUSZKA GRACJAN M 4 BYDGOSZCZ CWZS ZAWISZA BYDGOSZCZ 10km 0:37:36 15.96 [km/h] 05:46 [min/km] 0:37:36
5 261 SZYMAŃSKI MICHAŁ M 5 TORUŃ 10km 0:38:04 15.76 [km/h] 05:48 [min/km] 0:38:04
6 270 WESIORA MARIUSZ M 6 DRZYCIM BIEGAM BO CHCĘ 10km 0:39:52 15.05 [km/h] 05:59 [min/km] 0:39:52
7 239 TYBURSKI IGOR M 7 SZTUM ZANTYR 10km 0:40:40 14.75 [km/h] 05:04 [min/km] 0:40:40
8 283 BANASZEK MARCIN M 8 ŚWIERCZYNKI 10km 0:40:43 14.74 [km/h] 05:04 [min/km] 0:40:43
9 288 MALINOWSKI MACIEJ M 9 TORUŃ 10km 0:41:29 14.46 [km/h] 05:09 [min/km] 0:41:29
10 218 LICZNIERSKI MAREK M 10 PLEWISKA OWOC TEAM 10km 0:42:16 14.20 [km/h] 05:14 [min/km] 0:42:16
11 262 WIERZBOWSKI PIOTR M 11 BRZOZÓWKA TEAM KOPEĆ 10km 0:42:25 14.15 [km/h] 05:15 [min/km] 0:42:25
12 251 LICZNIERSKA ALINA K 1 PLEWISKA OWOC TEAM, GRUNWALD TEAM POZNAŃ 10km 0:43:06 13.92 [km/h] 05:19 [min/km] 0:43:06
13 274 PYRKA ADAM M 12 TORUŃ 10km 0:43:19 13.85 [km/h] 05:20 [min/km] 0:43:19
14 278 KRZYŻANOWSKI LESZEK M 13 GDYNIA SOK Z ŻUKA 10km 0:44:05 13.61 [km/h] 05:25 [min/km] 0:44:05
15 285 JASIŃSKI MAREK M 14 TORUŃ 10km 0:44:31 13.48 [km/h] 05:27 [min/km] 0:44:31
16 229 LEŚNIAK MATEUSZ M 15 CHEŁMŻA 10km 0:45:16 13.25 [km/h] 05:32 [min/km] 0:45:16
17 258 CHORĄŻAK SŁAWEK M 16 UNISŁAW 10km 0:45:46 13.11 [km/h] 05:35 [min/km] 0:45:46
18 286 WILIŃSKI GRZEGORZ M 17 TORUŃ 10km 0:46:31 12.90 [km/h] 05:39 [min/km] 0:46:31
19 267 LEWANDOWSKI SYLWESTER M 18 BISKUPICE 10km 0:46:46 12.83 [km/h] 05:41 [min/km] 0:46:46
20 271 LADA PRZEMYSŁAW M 19 ZALESIE STALE BIEGAM NOVA TRADING 10km 0:47:01 12.76 [km/h] 05:42 [min/km] 0:47:01
21 211 TOMASZEWSKI KRZYSZTOF M 20 TORUN HUSARIA RACE TEAM 10km 0:47:09 12.73 [km/h] 05:43 [min/km] 0:47:09
22 240 KUCZMA MIKOŁAJ M 21 CHEŁMŻA 10km 0:48:43 12.32 [km/h] 05:52 [min/km] 0:48:43
23 253 KUCIAK ANGELIKA K 2 CHEŁMŻA CHMIELARZ TEAM 10km 0:49:05 12.22 [km/h] 05:55 [min/km] 0:49:05
24 275 CHMIELARZ JUSTYNA K 3 KRUSZWICA CHMIELARZ TEAM 10km 0:49:13 12.19 [km/h] 05:55 [min/km] 0:49:13
25 269 ZABOROWSKA BEATA K 4 DRZYCIM BIEGAM BO LUBIĘ 10km 0:49:53 12.03 [km/h] 05:59 [min/km] 0:49:53
26 254 KOBUS ADAM M 22 ZĄBKI 10km 0:50:00 12.00 [km/h] 05:00 [min/km] 0:50:00
27 242 WITKOWSKI ŁUKASZ M 23 GDAŃSK 10km 0:50:02 11.99 [km/h] 05:00 [min/km] 0:50:02
28 225 SZLOSEK ZBIGNIEW M 24 TORUŃ GUMISIE 10km 0:50:09 11.96 [km/h] 05:01 [min/km] 0:50:09
29 214 URBAŃSKI BARTŁOMIEJ M 25 TORUŃ GUMISIE 10km 0:50:29 11.89 [km/h] 05:03 [min/km] 0:50:29
30 268 RÓŻYŃSKA EWA K 5 CHEŁMŻA 10km 0:50:32 11.87 [km/h] 05:03 [min/km] 0:50:32
31 231 CHWIAŁKOWSKI WIESŁAW M 26 TORUŃ EIW 10km 0:50:55 11.78 [km/h] 05:06 [min/km] 0:50:55
32 247 BARANOWICZ ARKADIUSZ M 27 RUDA ŚLĄSKA ADS MASNA 10km 0:51:02 11.76 [km/h] 05:06 [min/km] 0:51:02
33 241 WITKOWSKI ROBERT M 28 GDANSK 10km 0:51:03 11.75 [km/h] 05:06 [min/km] 0:51:03
34 248 ZGLIŃSKA ANNA K 6 UNISLAW PRZEBIEGLI UNISLAW 10km 0:51:04 11.75 [km/h] 05:06 [min/km] 0:51:04
35 290 SMYKOWSKI ŁUKASZ M 29 10km 0:51:09 11.73 [km/h] 05:07 [min/km] 0:51:09
36 284 GOLLA JUSTYNA K 7 GDAŃSK 10km 0:51:11 11.72 [km/h] 05:07 [min/km] 0:51:11
37 236 ZIÓŁKOWSKA KATARZYNA K 8 CHEŁMŻA 10km 0:51:42 11.61 [km/h] 05:10 [min/km] 0:51:42
38 216 SIWIŃSKA ELŻBIETA K 9 INOWROCŁAW BBL INOWROCŁAW 10km 0:52:04 11.52 [km/h] 05:12 [min/km] 0:52:04
39 222 JAGIEŁO SYLWIA K 10 INOWROCŁAW #BBKTS 10km 0:52:04 11.52 [km/h] 05:12 [min/km] 0:52:04
40 201 WATRAS ROBERT M 30 CHEŁMŻA #BBKTS 10km 0:52:20 11.46 [km/h] 05:14 [min/km] 0:52:20
41 280 STACHOWIAK DANUTA K 11 ROKIETNICA ROKIETNICA BIEGA/OWOC TEAM 10km 0:52:22 11.46 [km/h] 05:14 [min/km] 0:52:22
42 255 JANICZEK MARCIN M 31 ZABRZE 1983 10km 0:52:33 11.42 [km/h] 05:15 [min/km] 0:52:33
43 212 SZWAJA ALEKSANDRA K 12 CHEŁMŻA 10km 0:52:34 11.41 [km/h] 05:15 [min/km] 0:52:34
44 264 INGRAM JAKUB M 32 CHEŁMŻA CHEŁMŻA 10km 0:52:39 11.40 [km/h] 05:16 [min/km] 0:52:39
45 233 PIÓRKOWSKI ALEKSANDER M 33 TORUŃ MORSY Z ZALESIA 10km 0:52:41 11.39 [km/h] 05:16 [min/km] 0:52:41
46 215 FERLIŃSKI MICHAŁ M 34 CHEŁMŻA SKWARMAT 10km 0:52:44 11.38 [km/h] 05:16 [min/km] 0:52:44
47 281 WILCZEWSKI ROBERT M 35 TORUŃ 1WSZP 10km 0:52:50 11.36 [km/h] 05:17 [min/km] 0:52:50
48 238 TYBURSKA ANIELA K 13 SZTUM 10km 0:52:59 11.32 [km/h] 05:18 [min/km] 0:52:59
49 209 RUTKOWSKI MARCIN M 36 CHEŁMŻA 10km 0:53:01 11.32 [km/h] 05:18 [min/km] 0:53:01
50 266 STACHYRA PRZEMYSŁAW M 37 KOŃCZEWICE 10km 0:53:05 11.30 [km/h] 05:19 [min/km] 0:53:05
51 210 RUTKOWSKA JOANNA K 14 CHEŁMŻA 10km 0:53:07 11.30 [km/h] 05:19 [min/km] 0:53:07
52 217 WOJCIECHOWSKA MAGDALENA K 15 CHEŁMŻA 10km 0:53:27 11.23 [km/h] 05:21 [min/km] 0:53:27
53 226 ŁAŃSKA ANNA K 16 CHEŁMŻA 10km 0:53:32 11.21 [km/h] 05:21 [min/km] 0:53:32
54 252 PAWŁOWSKI ŁUKASZ M 38 TORUŃ KLUB BIEGACZA T2/4 10km 0:53:51 11.14 [km/h] 05:23 [min/km] 0:53:51
55 245 DŁONIAK EDMUND M 39 GNIEWKOWO T.G SOKÓŁ GNIEWKOWO 10km 0:54:28 11.02 [km/h] 05:27 [min/km] 0:54:28
56 221 FERENS PAWEŁ M 40 INOWROCŁAW BBL INOWROCŁAW 10km 0:54:59 10.91 [km/h] 05:30 [min/km] 0:54:59
57 235 BIERNACKI BARTOSZ M 41 GRUCZNO 10km 0:55:17 10.85 [km/h] 05:32 [min/km] 0:55:17
58 227 PIOTRKOWSKA ZUZANNA K 17 CHEŁMŻA MRÓWKA BHP 10km 0:55:25 10.83 [km/h] 05:33 [min/km] 0:55:25
59 228 PIOTRKOWSKI TOMASZ M 42 CHEŁMŻA MRÓWKA BHP 10km 0:55:25 10.83 [km/h] 05:33 [min/km] 0:55:25
60 249 REPELOWICZ MIKOŁAJ M 43 TORUŃ 10km 0:55:44 10.77 [km/h] 05:34 [min/km] 0:55:44
61 205 ZIARNIK ANNA K 18 CHEŁMŻA #BBKTS 10km 0:56:36 10.60 [km/h] 05:40 [min/km] 0:56:36
62 246 GRYLEWICZ TOMASZ M 44 BYDGOSZCZ 10km 0:56:40 10.59 [km/h] 05:40 [min/km] 0:56:40
63 202 WASILEWSKI MARIUSZ M 45 CHEŁMŻA KST WŁUKNIARZ CHEŁMŻA 10km 0:56:41 10.59 [km/h] 05:40 [min/km] 0:56:41
64 213 SZLOSEK SEBASTIAN M 46 TORUŃ GUMISIE 10km 0:56:45 10.57 [km/h] 05:41 [min/km] 0:56:45
65 250 GOŁKOWSKA MARLENA K 19 BRODNICA 10km 0:56:46 10.57 [km/h] 05:41 [min/km] 0:56:46
66 230 JUPP MAREK M 47 CHEŁMŻA 10km 0:56:54 10.54 [km/h] 05:41 [min/km] 0:56:54
67 203 SZYMECZKO ALEKSANDRA K 20 CHEŁMŻA APATOR 10km 0:56:59 10.53 [km/h] 05:42 [min/km] 0:56:59
68 207 SZATKOWSKI MICHAŁ M 48 CHEŁMŻA #BBKTS 10km 0:58:20 10.29 [km/h] 05:50 [min/km] 0:58:20
69 279 MAJCHER JAN M 49 TORUN 10km 0:58:43 10.22 [km/h] 05:52 [min/km] 0:58:43
70 260 SADOWSKA-CHORĄŻAK ANETA K 21 UNISŁAW 10km 0:58:56 10.18 [km/h] 05:54 [min/km] 0:58:56
71 291 RUDEWICZ SANDRA K 22 KOWALEWO POMORSKIE KOWALEWO BIEGA 10km 0:59:10 10.14 [km/h] 05:55 [min/km] 0:59:10
72 237 PAPROCKA DOROTA K 23 WARSZAWA 10km 0:59:24 10.10 [km/h] 05:56 [min/km] 0:59:24
73 292 PAWSKA DANUTA K 24 CHEŁMŻA PAWSKI TEAM 10km 1:00:19 9.95 [km/h] 05:02 [min/km] 1:00:19
74 243 PAWLAK MAGDALENA K 25 GRUDZIĄDZ 10km 1:02:07 9.66 [km/h] 05:13 [min/km] 1:02:07
75 232 CHWIAŁKOWSKA EWA K 26 TORUŃ EIW 10km 1:02:08 9.66 [km/h] 05:13 [min/km] 1:02:08
76 282 WASILEWSKA MAŁGORZATA K 27 CHEŁMŻA 10km 1:03:05 9.51 [km/h] 05:19 [min/km] 1:03:05
77 219 KOZACZYK JOANNA K 28 INOWROCŁAW BBL INOWROCŁAW 10km 1:03:18 9.48 [km/h] 05:20 [min/km] 1:03:18
78 220 KOZACZYK JULIA K 29 INOWROCŁAW BBL INOWROCŁAW 10km 1:03:18 9.48 [km/h] 05:20 [min/km] 1:03:18
79 256 KOSTRZEWSKA DOROTA K 30 ZĄBKI 10km 1:03:31 9.45 [km/h] 05:21 [min/km] 1:03:31
80 265 MAJKOWSKI STANISŁAW M 50 BYTÓW KLUB BIEGACZA "GOCH" BYTÓW 10km 1:03:50 9.40 [km/h] 05:23 [min/km] 1:03:50
81 206 SAWICKA MONIKA K 31 CHEŁMŻA 10km 1:04:36 9.29 [km/h] 05:28 [min/km] 1:04:36
82 223 CEBULAK AGNIESZKA K 32 STRUŻAL 10km 1:05:24 9.17 [km/h] 05:32 [min/km] 1:05:24
83 272 TYMIŃSKI ŁUKASZ M 51 TORUŃ 10km 1:05:41 9.13 [km/h] 05:34 [min/km] 1:05:41
84 273 JAWORSKA KACZMAREK SYLWIA K 33 TORUŃ 10km 1:05:41 9.13 [km/h] 05:34 [min/km] 1:05:41
85 208 SZATKOWSKA EMILIA K 34 CHEŁMŻA #BBKTS 10km 1:05:54 9.10 [km/h] 05:35 [min/km] 1:05:54
86 244 GOLA GRZEGORZ M 52 MARKOWO GRZEGORZ GOLA 10km 1:06:02 9.09 [km/h] 05:36 [min/km] 1:06:02
87 224 CEBULAK SZYMON M 53 STRUŻAL 10km 1:07:19 8.91 [km/h] 05:44 [min/km] 1:07:19
88 204 BEHOUNEK MAGDALENA K 35 ZAKOPANE TG SOKÓŁ ZAKOPANE 10km 1:08:02 8.82 [km/h] 05:48 [min/km] 1:08:02
89 289 KAWECKA MARZENA K 36 10km 1:08:49 8.72 [km/h] 05:53 [min/km] 1:08:49
90 259 ROZMARYNOWICZ ANNA K 37 DĄBROWA CHEŁMIŃSKA MORSY Z ZALESIA 10km 1:16:00 7.89 [km/h] 05:36 [min/km] 1:16:00
91 257 KRUSZYŃSKA MAGDALENA K 38 TORUŃ MORSY Z ZALESIA 10km 1:16:00 7.89 [km/h] 05:36 [min/km] 1:16:00
- 287 JANKIEWICZ MATEUSZ M - GOSTKOWO 10km DNF - [km/h] - [min/km] 0:00:00

Połmaraton Chełmzynski i Chełmzynska Dziesiatka - 21km.xlsx

M-ce Numer Nazwisko Imię Płeć M-ce M/K Kat. M-ce kat. M/K Miejscowość Klub DYSTANS Wynik Prędkość km/h x Tempo min/km x
1 79 KLAYBOR DAWID M 1 M 0-29 ŻAGAŃ 34 BKPANC 21km 1:18:33 16.12 [km/h] 05:43 [min/km]
2 65 GÓRALSKI MARCIN M 2 M 30-39 GDYNIA 21km 1:18:41 16.09 [km/h] 05:44 [min/km]
3 39 MYŚLAK PIOTR M 3 M 0-29 POZNAŃ TRIATHLONISTA.COM #OWOCBIEGA 21km 1:18:44 16.08 [km/h] 05:44 [min/km]
4 28 WOJNAR ROBERT M 4 M 40-49 1 TORUŃ 21km 1:18:49 16.06 [km/h] 05:44 [min/km]
5 116 KOWALCZYK MAREK M 5 M 40-49 2 BYDGOSZCZ 21km 1:19:24 15.94 [km/h] 05:46 [min/km]
6 4 RAKOCZY MARCIN M 6 M 0-29 1 GDYNIA ŻÓRAWSKI TEAM 21km 1:19:52 15.85 [km/h] 05:47 [min/km]
7 29 ŻELISZCZAK ARTUR M 7 M 30-39 1 TORUŃ NADAKTYWNI TORUŃ 21km 1:22:17 15.39 [km/h] 05:54 [min/km]
8 43 OLCHAWA PIOTR M 8 M 50-59 1 CHEŁMŻA 21km 1:23:35 15.15 [km/h] 05:58 [min/km]
9 77 FOREMSKI SŁAWOMIR M 9 M 50-59 2 TORUN 21km 1:23:48 15.11 [km/h] 05:58 [min/km]
10 5 RADTKE ŁUKASZ M 10 M 30-39 2 CHEŁMŻA KM UMK 21km 1:24:16 15.02 [km/h] 05:00 [min/km]
11 12 JAWORSKI MAREK M 11 M 60-69 1 TORUŃ 21km 1:24:54 14.91 [km/h] 05:01 [min/km]
12 7 KAŁASKA KRZYSZTOF M 12 M 40-49 3 CHEŁMŻA CHETOR TEAM 21km 1:25:23 14.83 [km/h] 05:03 [min/km]
13 115 WIĘCKOWSKI DARIUSZ M 13 M 30-39 3 BYDGOSZCZ AMS TRIATHLON BYDGOSZCZ 21km 1:26:17 14.67 [km/h] 05:05 [min/km]
14 82 ARSENIUK ANNA K 1 K 35+ GÓRSK, ZŁAWIEŚ WIELKA T.S. OPATRUNKI TORUŃ 21km 1:28:04 14.38 [km/h] 05:10 [min/km]
15 56 RACZYŃSKI PIOTR M 14 M 0-29 2 POKRZYDOWO 21km 1:30:16 14.03 [km/h] 05:17 [min/km]
16 13 CZUK MAREK M 15 M 60-69 2 TORUŃ 21km 1:30:22 14.01 [km/h] 05:17 [min/km]
17 109 SZARWIŃSKI MARIUSZ M 16 M 30-39 4 TORUŃ 21km 1:30:57 13.92 [km/h] 05:19 [min/km]
18 66 GÓRALSKI KRZYSZTOF M 17 M 50-59 3 TORUŃ T.S. OPATRUNKI TORUŃ 21km 1:31:33 13.83 [km/h] 05:20 [min/km]
19 6 BEHOUNEK LESZEK M 18 M 60-69 3 ZAKOPANE TG SOKÓŁ ZAKOPANE 21km 1:31:58 13.77 [km/h] 05:22 [min/km]
20 16 PILARSKI KRZYSZTOF M 19 M 30-39 5 TORUŃ 21km 1:32:57 13.62 [km/h] 05:24 [min/km]
21 119 GAPYS DOROTA K 2 K 35+ ŁÓDŹ AKADEMIABIEGACZA.PL S.L. SALOS-WODNA ŁÓDŹ 21km 1:32:59 13.62 [km/h] 05:24 [min/km]
22 1 WĄSIK MARCIN M 20 M 30-39 6 CHEŁMŻA #BBKTS 21km 1:33:19 13.57 [km/h] 05:25 [min/km]
23 42 KONIARSKI JANUSZ M 21 M 50-59 4 PRZYSIEK 21km 1:33:25 13.55 [km/h] 05:26 [min/km]
24 114 BUCHOLC MATEUSZ M 22 M 0-29 3 SKARSZEWY 21km 1:33:32 13.54 [km/h] 05:26 [min/km]
25 11 DEJEWSKI MICHAŁ M 23 M 30-39 7 GDYNIA 21km 1:34:05 13.46 [km/h] 05:28 [min/km]
26 15 BUTOWSKI KRZYSZTOF M 24 M 30-39 8 TORUŃ STUDIO NIERUCHOMOŚCI 21km 1:34:42 13.37 [km/h] 05:29 [min/km]
27 96 WIŚNIEWSKI LESZEK M 25 M 50-59 5 BRZOZA BRZOZA BRZOZA 21km 1:34:53 13.34 [km/h] 05:30 [min/km]
28 50 MARCHEWKA MAREK M 26 M 40-49 4 TORUŃ ANIRO RUN TEAM 21km 1:35:01 13.32 [km/h] 05:30 [min/km]
29 121 URLICH TOMASZ M 27 M 40-49 5 TORUŃ SPICE WIZARD 21km 1:35:06 13.31 [km/h] 05:30 [min/km]
30 108 STACHOWIAK MAREK M 28 M 40-49 6 ROKIETNICA ROKIETNICA BIEGA/OWOC TEAM 21km 1:35:51 13.21 [km/h] 05:33 [min/km]
31 23 WOJCIECHOWSKI SŁAWOMIR M 29 M 50-59 6 CHEŁMŻA 21km 1:36:06 13.17 [km/h] 05:33 [min/km]
32 55 ZAKRZEWICZ-PODLECKA AGNIESZKA K 3 K 0-34 ROKIETNICA ROKIETNICA BIEGA 21km 1:36:07 13.17 [km/h] 05:33 [min/km]
33 118 KOSIŃSKI ZBIGNIEW M 30 M 40-49 7 POZNAŃ 21km 1:36:15 13.15 [km/h] 05:34 [min/km]
34 86 GAWRON PIOTR M 31 M 40-49 8 BYTÓW KB GOCH BYTÓW 21km 1:36:58 13.06 [km/h] 05:36 [min/km]
35 34 BODNAR JAN M 32 M 60-69 4 TORUŃ 21km 1:37:20 13.01 [km/h] 05:37 [min/km]
36 76 BARTKOWSKA JOANNA K 4 K 35+ 1 BRZOZÓWKA KM UMK 21km 1:37:20 13.01 [km/h] 05:37 [min/km]
37 113 MAJCHER PAWEŁ M 33 M 40-49 9 PĘDZEWO 21km 1:37:56 12.93 [km/h] 05:38 [min/km]
38 48 PIOTROWICZ DAWID M 34 M 0-29 4 CHEŁMŻA 21km 1:38:10 12.90 [km/h] 05:39 [min/km]
39 47 SZYMECKI SEBASTIAN M 35 M 0-29 5 CHEŁMŻA 21km 1:38:13 12.89 [km/h] 05:39 [min/km]
40 35 KALISZ ANDRZEJ M 36 M 50-59 7 CHEŁMŻA MAK BIEGA 21km 1:38:46 12.82 [km/h] 05:41 [min/km]
41 3 PAWELEC MAREK M 37 M 40-49 10 GMINA CHEŁMŻA TTC 21km 1:38:46 12.82 [km/h] 05:41 [min/km]
42 64 JAROCKA BEATA K 5 K 35+ 2 DĄBROWA CHEŁMIŃSKA 21km 1:38:54 12.80 [km/h] 05:41 [min/km]
43 54 MASALSKI ROMUALD M 38 M 50-59 8 CZERNIKOWO ZABIEGANI CZERNIKOWO 21km 1:40:05 12.65 [km/h] 05:45 [min/km]
44 123 PALACZ WIOLETTA K 6 K 35+ 3 BYDGOSZCZ 21km 1:40:27 12.60 [km/h] 05:46 [min/km]
45 38 GOŁĘBIEWSKI PIOTR M 39 M 40-49 11 BYDGOSZCZ 21km 1:40:46 12.56 [km/h] 05:47 [min/km]
46 33 GEDOWSKI ARKADIUSZ M 40 M 30-39 9 INOWROCLAW ARKADIO RUN AND BE FREE 21km 1:41:10 12.51 [km/h] 05:48 [min/km]
47 57 CHABASIŃSKI GRZEGORZ M 41 M 40-49 12 GRUDZIĄDZ BIEGNIJ TATA BIEGNIJ! 21km 1:41:30 12.47 [km/h] 05:49 [min/km]
48 90 LEWANDOWSKI SŁAWOMIR M 42 M 40-49 13 BYDGOSZCZ KLUBZDROWIA24H 21km 1:42:31 12.35 [km/h] 05:52 [min/km]
49 41 NĘDZUSIAK DARIUSZ M 43 M 50-59 9 ALEKSANDRÓW KUJAWSKI 21km 1:42:36 12.34 [km/h] 05:52 [min/km]
50 14 CZACHAROWSKI PIOTR M 44 M 30-39 10 TORUŃ 21km 1:42:53 12.31 [km/h] 05:53 [min/km]
51 84 NOWAK JAROSŁAW M 45 M 50-59 10 TORUŃ SPC 21km 1:42:54 12.30 [km/h] 05:53 [min/km]
52 10 SAWICKI PIOTR M 46 M 40-49 14 CHEŁMŻA INVEST TECH 21km 1:43:03 12.29 [km/h] 05:53 [min/km]
53 2 KLECHA KRZYSZTOF M 47 M 40-49 15 CHEŁMŻA BIEGAJĄ Y Z PSEM 21km 1:43:14 12.26 [km/h] 05:54 [min/km]
54 21 REINHOLD MARCIN M 48 M 40-49 16 CHEŁMŻA A TY LOTOSZ? 21km 1:44:25 12.12 [km/h] 05:57 [min/km]
55 98 KRZYWDZINSKI DANIEL M 49 M 30-39 11 CHEŁMŻA 21km 1:44:43 12.09 [km/h] 05:58 [min/km]
56 70 ANZEL JERZY M 50 M 50-59 11 BRODNICA BRODNICA BIEGA 21km 1:44:51 12.07 [km/h] 05:58 [min/km]
57 72 MILEWSKI BENEDYKT M 51 M 50-59 12 GRĄŻAWY SAMINDRUK BRODNICA 21km 1:44:51 12.07 [km/h] 05:58 [min/km]
58 40 KANARKOWSKI STANISŁAW M 52 M 50-59 13 CZARNOWO NIEZRZESZONY 21km 1:45:05 12.05 [km/h] 05:59 [min/km]
59 74 BAGROWSKI MAREK M 53 M 50-59 14 JANOWO /K/ DABROWY CHELMINSKIEJ UMK COLLEGIUM MEDICUM RATOWNICTWO-MEDYCZNE RATUJE I BIEGA 21km 1:45:58 11.95 [km/h] 05:01 [min/km]
60 22 BUDZIAK WIESŁAW M 54 M 60-69 5 CHEŁMŻA 21km 1:46:18 11.91 [km/h] 05:02 [min/km]
61 69 ŚRUBAS PAWEŁ M 55 M 40-49 17 RADZIEJÓW URZĄD MIASTA RADZIEJÓW / KS ZRYW RADZIEJÓW 21km 1:46:53 11.84 [km/h] 05:04 [min/km]
62 52 LISEWSKI PIOTR M 56 M 50-59 15 BYDGOSZCZ BRAK 21km 1:47:03 11.83 [km/h] 05:04 [min/km]
63 60 GRZEGORZEWSKI RAFAL M 57 M 40-49 18 NIEMCZ 21km 1:47:08 11.82 [km/h] 05:05 [min/km]
64 93 MARCHEL TOMASZ M 58 M 30-39 12 SOLEC KUJAWSKI 21km 1:47:22 11.79 [km/h] 05:05 [min/km]
65 61 POPEK MACIEJ M 59 M 40-49 19 WŁOCŁAWEK ANETA TEAM 21km 1:47:36 11.77 [km/h] 05:06 [min/km]
66 87 GOLUBSKI ROBERT M 60 M 40-49 20 ZĄBKI 21km 1:47:43 11.75 [km/h] 05:06 [min/km]
67 106 ŻABIŃSKI RADOSŁAW M 61 M 30-39 13 WŁOCŁAWEK ANWIL TEAM 21km 1:47:46 11.75 [km/h] 05:06 [min/km]
68 83 PIWOŃSKI ROBERT M 62 M 40-49 21 TORUŃ 21km 1:47:53 11.73 [km/h] 05:07 [min/km]
69 94 GAWRYSZEWSKI PIOTR M 63 M 40-49 22 TORUŃ 21km 1:48:07 11.71 [km/h] 05:07 [min/km]
70 30 PLISZCZYSKI MIROSŁAW M 64 M 50-59 16 HNISŁAW 21km 1:49:39 11.55 [km/h] 05:12 [min/km]
71 59 STRZYŻEWSKI MIROSŁAW M 65 M 50-59 17 OSIEK N/WISŁĄ EDYTORZY UMK 21km 1:49:44 11.54 [km/h] 05:12 [min/km]
72 36 WIADERNY PRZEMYSŁAW M 66 M 0-29 6 CHEŁMŻA 21km 1:49:52 11.52 [km/h] 05:12 [min/km]
73 97 WITT KATARZYNA K 7 K 0-34 1 TORUŃ TOP CROSS TORUŃ 21km 1:50:24 11.47 [km/h] 05:14 [min/km]
74 92 BENSZ SEBASTIAN M 67 M 40-49 23 TORUŃ 21km 1:51:02 11.40 [km/h] 05:16 [min/km]
75 100 PODKÓWKA ZBIGNIEW M 68 M 50-59 18 BYDGOSZCZ 21km 1:51:19 11.37 [km/h] 05:17 [min/km]
76 18 STRZELECKI PIOTR M 69 M 40-49 24 CHEŁMŻA STRZELOCHY 21km 1:51:57 11.31 [km/h] 05:18 [min/km]
77 17 STRZELECKA MARTA K 8 K 35+ 4 CHEŁMŻA STRZELOCHY 21km 1:51:57 11.31 [km/h] 05:18 [min/km]
78 31 DOMBEK ROBERT M 70 M 30-39 14 TORUŃ 21km 1:52:03 11.30 [km/h] 05:19 [min/km]
79 103 SCHULZ RADEK M 71 M 40-49 25 LUSÓWKO 3:33 TEAM 21km 1:52:59 11.21 [km/h] 05:21 [min/km]
80 53 ŚLÓSAREK PIOTR M 72 M 60-69 6 TORUŃ STUDIO NIERUCHOMOŚCI 21km 1:53:42 11.13 [km/h] 05:23 [min/km]
81 32 LIS KRZYSZTOF M 73 M 40-49 26 DOBRZYŃ NAD WISŁĄ 21km 1:55:33 10.96 [km/h] 05:29 [min/km]
82 19 GRAJKOWSKI DARIUSZ M 74 M 40-49 27 CHEŁMŻA CHTW CHEŁMŻA 21km 1:55:41 10.94 [km/h] 05:29 [min/km]
83 9 KAMINSKA MAGDALENA K 9 K 35+ 5 TORUN 21km 1:55:52 10.93 [km/h] 05:29 [min/km]
84 8 KAMIŃSKI STEFAN M 75 M 70+ 1 TORUŃ 1947 21km 1:55:58 10.92 [km/h] 05:30 [min/km]
85 44 LISIUS TOMASZ M 76 M 50-59 19 GDAŃSK 21km 1:56:21 10.88 [km/h] 05:31 [min/km]
86 73 TARNOWSKA EWA K 10 K 0-34 2 TORUŃ KLUB BIEGACZA T2/4 21km 1:56:53 10.83 [km/h] 05:32 [min/km]
87 85 SALETNIK TOMASZ M 77 M 40-49 28 ŁĄŻYN KLUB OCZKO 21km 1:57:31 10.77 [km/h] 05:34 [min/km]
88 104 TOMKOWIAK SŁAWOMIR M 78 M 40-49 29 POZNAŃ 3:33 TEAM 21km 1:57:37 10.76 [km/h] 05:34 [min/km]
89 46 PARUSINSKI JAN M 79 M 60-69 7 GDAŃSK 21km 1:57:43 10.75 [km/h] 05:35 [min/km]
90 37 MAJEWSKI ZDZISŁAW M 80 M 60-69 8 TORUŃ PARKRUN TORUŃ 21km 1:57:51 10.74 [km/h] 05:35 [min/km]
91 71 MARCYJANIAK KRZYSZTOF M 81 M 40-49 30 RADZIEJÓW KS ZRYW RADZIEJÓW 21km 1:58:23 10.69 [km/h] 05:37 [min/km]
92 26 OPACIŃSKI HENRYK M 82 M 40-49 31 CHEŁMŻA 21km 1:58:30 10.68 [km/h] 05:37 [min/km]
93 27 OPACIŃSKA MAŁGORZATA K 11 K 35+ 6 CHEŁMŻA 21km 1:58:30 10.68 [km/h] 05:37 [min/km]
94 75 DERUŚ STANISŁAW M 83 M 50-59 20 BISKUPICE KM TRUCHCIK ŁUBIANKA 21km 1:59:03 10.63 [km/h] 05:39 [min/km]
95 20 RUMIŃSKI RAFAŁ M 84 M 40-49 32 REDA RUNEDA 21km 2:01:02 10.46 [km/h] 05:44 [min/km]
96 62 BRZOZOWSKA IWONA K 12 K 35+ 7 UNISŁAW PRZEBIEGLI UNISŁAW I OKOLICE 21km 2:01:22 10.43 [km/h] 05:45 [min/km]
97 89 MAŁKIŃSKA-BIĘGA DOROTA K 13 K 0-34 3 BYDGOSZCZ KLUBZDROWIA24H 21km 2:01:27 10.42 [km/h] 05:45 [min/km]
98 68 DUNDELSKI JAKUB M 85 M 0-29 7 CHELMZA 21km 2:02:52 10.30 [km/h] 05:49 [min/km]
99 63 WEILAND EMILA K 14 K 35+ 8 UNISŁAW DRUŻYNA SZPIKU 21km 2:03:37 10.24 [km/h] 05:52 [min/km]
100 122 DEPCZYŃSKA VIOLETTA K 15 K 35+ 9 CHEŁMŻA 21km 2:03:40 10.24 [km/h] 05:52 [min/km]
101 112 LEWANDOWSKI BARTOSZ M 86 M 40-49 33 TORUN 21km 2:03:41 10.24 [km/h] 05:52 [min/km]
102 117 GRODZICKI TOMASZ M 87 M 0-29 8 ŁYSOMICE GOSTKOWO 21km 2:03:56 10.22 [km/h] 05:52 [min/km]
103 58 GÓRECKI SŁAWOMIR M 88 M 0-29 9 CHEŁMŻA 21km 2:06:18 10.02 [km/h] 05:59 [min/km]
104 110 PIENIĄŻEK RADOSŁAW M 89 M 0-29 10 CHEŁMŻA 21km 2:06:49 9.98 [km/h] 05:01 [min/km]
105 45 SUMISŁAWSKI EDMUND M 90 M 70+ 2 GDAŃSK 21km 2:07:24 9.94 [km/h] 05:02 [min/km]
106 102 SCHULZ BEATA K 16 K 35+ 10 LUSÓWKO 3:33 TEAM 21km 2:07:28 9.93 [km/h] 05:02 [min/km]
107 78 HEBENSTREIT LILIANNA K 17 K 0-34 4 CHEŁMŻA 21km 2:09:26 9.78 [km/h] 05:08 [min/km]
108 99 KAMIŃSKI RADEK M 91 M 30-39 15 TORUŃ 21km 2:10:45 9.68 [km/h] 05:12 [min/km]
109 101 OKOŃSKI MACIEJ M 92 M 40-49 34 TORUŃ 21km 2:10:45 9.68 [km/h] 05:12 [min/km]
110 91 BEREBECKI ROMAN M 93 M 60-69 9 RYPIN KB LECH RYPIN 21km 2:15:49 9.32 [km/h] 05:26 [min/km]
111 95 SOSNOWSKI GRZEGORZ M 94 M 40-49 35 CHEŁMŻA 21km 2:16:19 9.29 [km/h] 05:28 [min/km]
112 51 MAJCHER STANISŁAW M 95 M 70+ 3 GOLUB-DOBRZYŃ 21km 2:16:37 9.27 [km/h] 05:28 [min/km]
113 80 MAJEWSKI JAN M 96 M 70+ 4 TORUN TOW. MIAST PARTNERSKICH TORUNIA 21km 2:20:00 9.04 [km/h] 05:38 [min/km]
114 120 ŻOŁNOWSKA MONIKA K 18 K 35+ 11 TORUŃ 21km 2:24:25 8.77 [km/h] 05:51 [min/km]
115 25 MUSIAŁOWSKI KAZIMIERZ M 97 M 70+ 5 87-125 SMOGORZEWIEC UL. THE BEATLES 2 NORDIC WALKING ZA UŚMIECH 21km 2:26:00 8.67 [km/h] 05:55 [min/km]
116 67 ADAMCZYK ZBIGNIEW M 98 M 60-69 10 ZAMEK BIERZGŁOWSKI KM TRUCHCIK ŁUBIANKA 21km 2:26:01 8.67 [km/h] 05:55 [min/km]
117 107 KAWECKI KRZYSZTOF M 99 M 0-29 11 CHEŁMŻA #BBKTS 21km 2:29:29 8.47 [km/h] 05:05 [min/km]
118 105 TOMASZEWSKA MALWINA K 19 K 0-34 5 CHEŁMŻA #BBKTS 21km 2:29:29 8.47 [km/h] 05:05 [min/km]
119 24 ORZEŁ KAROLINA K 20 K 35+ 12 TORUŃ KAMUS MARATON 21km 2:34:03 8.22 [km/h] 05:18 [min/km]
120 49 SZARSZEWSKI WITOLD M 100 M 60-69 11 NAKŁO NAD NOTECIĄ 21km 2:34:05 8.22 [km/h] 05:18 [min/km]
121 111 SAWICKA JOANNA K 21 K 0-34 6 CHEŁMŻA 21km 2:51:01 7.40 [km/h] 05:06 [min/km]
- 81 GREGROWSKI KRZYSZTOF M - M 30-39 - TORUŃ PODGÓRZ TORUŃ 21km DNF - [km/h] - [min/km]
- 88 MAŁKIŃSKI JÓZEF M - M 60-69 - BYDGOSZCZ 21km DNF - [km/h] - [min/km]

Komunikat. Wykorzystujemy pliki cookies, aby nasz serwis lepiej spełniał Państwa oczekiwania. Można zablokować zapisywanie cookies, zmieniając ustawienia przeglądarki. [x] __ZAMKNIJ